createdAt,value
2018-05-08T00:00:00.000Z,98663
2018-05-08T00:05:00.000Z,98653
2018-05-08T00:10:00.000Z,98654
2018-05-08T00:15:00.000Z,98648
2018-05-08T00:20:00.000Z,98638
2018-05-08T00:25:00.000Z,98635
2018-05-08T00:30:00.000Z,98617
2018-05-08T00:35:00.000Z,98617
2018-05-08T00:40:00.000Z,98606
2018-05-08T00:45:00.000Z,98606
2018-05-08T00:50:00.000Z,98600
2018-05-08T00:55:00.000Z,98596
2018-05-08T01:00:00.000Z,98598
2018-05-08T01:05:00.000Z,98595
2018-05-08T01:10:00.000Z,98601
2018-05-08T01:15:00.000Z,98594
2018-05-08T01:20:00.000Z,98597
2018-05-08T01:25:00.000Z,98583
2018-05-08T01:30:00.000Z,98587
2018-05-08T01:35:00.000Z,98583
2018-05-08T01:40:00.000Z,98581
2018-05-08T01:45:00.000Z,98576
2018-05-08T01:50:00.000Z,98576
2018-05-08T01:55:00.000Z,98561
2018-05-08T02:00:00.000Z,98562
2018-05-08T02:06:00.000Z,98554
2018-05-08T02:11:00.000Z,98557
2018-05-08T02:16:00.000Z,98552
2018-05-08T02:21:00.000Z,98555
2018-05-08T02:26:00.000Z,98550
2018-05-08T02:31:00.000Z,98548
2018-05-08T02:36:00.000Z,98549
2018-05-08T02:41:00.000Z,98541
2018-05-08T02:46:00.000Z,98526
2018-05-08T02:51:00.000Z,98522
2018-05-08T02:56:00.000Z,98520
2018-05-08T03:01:00.000Z,98521
2018-05-08T03:06:00.000Z,98512
2018-05-08T03:11:00.000Z,98511
2018-05-08T03:16:00.000Z,98512
2018-05-08T03:21:00.000Z,98503
2018-05-08T03:26:00.000Z,98509
2018-05-08T03:31:00.000Z,98518
2018-05-08T03:36:00.000Z,98506
2018-05-08T03:41:00.000Z,98499
2018-05-08T03:46:00.000Z,98514
2018-05-08T03:51:00.000Z,98505
2018-05-08T03:56:00.000Z,98522
2018-05-08T04:01:00.000Z,98519
2018-05-08T04:06:00.000Z,98514
2018-05-08T04:11:00.000Z,98512
2018-05-08T04:16:00.000Z,98500
2018-05-08T04:21:00.000Z,98509
2018-05-08T04:26:00.000Z,98508
2018-05-08T04:31:00.000Z,98519
2018-05-08T04:36:00.000Z,98508
2018-05-08T04:41:00.000Z,98508
2018-05-08T04:46:00.000Z,98506
2018-05-08T04:51:00.000Z,98507
2018-05-08T04:56:00.000Z,98497
2018-05-08T05:01:00.000Z,98502
2018-05-08T05:06:00.000Z,98489
2018-05-08T05:11:00.000Z,98496
2018-05-08T05:16:00.000Z,98492
2018-05-08T05:21:00.000Z,98500
2018-05-08T05:26:00.000Z,98502
2018-05-08T05:31:00.000Z,98488
2018-05-08T05:36:00.000Z,98494
2018-05-08T05:41:00.000Z,98494
2018-05-08T05:46:00.000Z,98491
2018-05-08T05:51:00.000Z,98486
2018-05-08T05:56:00.000Z,98490
2018-05-08T06:01:00.000Z,98498
2018-05-08T06:06:00.000Z,98482
2018-05-08T06:11:00.000Z,98481
2018-05-08T06:16:00.000Z,98472
2018-05-08T06:21:00.000Z,98470
2018-05-08T06:26:00.000Z,98476
2018-05-08T06:31:00.000Z,98478
2018-05-08T06:36:00.000Z,98469
2018-05-08T06:41:00.000Z,98471
2018-05-08T06:46:00.000Z,98481
2018-05-08T06:51:00.000Z,98479
2018-05-08T06:56:00.000Z,98471
2018-05-08T07:01:00.000Z,98486
2018-05-08T07:06:00.000Z,98475
2018-05-08T07:11:00.000Z,98468
2018-05-08T07:16:00.000Z,98469
2018-05-08T07:21:00.000Z,98461
2018-05-08T07:26:00.000Z,98449
2018-05-08T07:31:00.000Z,98444
2018-05-08T07:36:00.000Z,98462
2018-05-08T07:41:00.000Z,98467
2018-05-08T07:46:00.000Z,98453
2018-05-08T07:51:00.000Z,98452
2018-05-08T07:56:00.000Z,98454
2018-05-08T08:01:00.000Z,98440
2018-05-08T08:06:00.000Z,98454
2018-05-08T08:12:00.000Z,98455
2018-05-08T08:17:00.000Z,98452
2018-05-08T08:22:00.000Z,98450
2018-05-08T08:27:00.000Z,98456
2018-05-08T08:32:00.000Z,98449
2018-05-08T08:37:00.000Z,98454
2018-05-08T08:42:00.000Z,98450
2018-05-08T08:47:00.000Z,98454
2018-05-08T08:52:00.000Z,98444
2018-05-08T08:57:00.000Z,98436
2018-05-08T09:02:00.000Z,98427
2018-05-08T09:07:00.000Z,98435
2018-05-08T09:12:00.000Z,98431
2018-05-08T09:17:00.000Z,98424
2018-05-08T09:22:00.000Z,98416
2018-05-08T09:27:00.000Z,98413
2018-05-08T09:32:00.000Z,98400
2018-05-08T09:37:00.000Z,98402
2018-05-08T09:42:00.000Z,98394
2018-05-08T09:47:00.000Z,98397
2018-05-08T09:52:00.000Z,98396
2018-05-08T09:57:00.000Z,98381
2018-05-08T10:02:00.000Z,98369
2018-05-08T10:07:00.000Z,98372
2018-05-08T10:12:00.000Z,98358
2018-05-08T10:17:00.000Z,98351
2018-05-08T10:22:00.000Z,98360
2018-05-08T10:27:00.000Z,98355
2018-05-08T10:32:00.000Z,98354
2018-05-08T10:37:00.000Z,98352
2018-05-08T10:42:00.000Z,98345
2018-05-08T10:47:00.000Z,98346
2018-05-08T10:52:00.000Z,98343
2018-05-08T10:57:00.000Z,98336
2018-05-08T11:02:00.000Z,98329
2018-05-08T11:07:00.000Z,98329
2018-05-08T11:12:00.000Z,98330
2018-05-08T11:17:00.000Z,98324
2018-05-08T11:22:00.000Z,98316
2018-05-08T11:27:00.000Z,98307
2018-05-08T11:32:00.000Z,98294
2018-05-08T11:37:00.000Z,98285
2018-05-08T11:42:00.000Z,98283
2018-05-08T11:47:00.000Z,98280
2018-05-08T11:52:00.000Z,98276
2018-05-08T11:57:00.000Z,98276
2018-05-08T12:02:00.000Z,98260
2018-05-08T12:07:00.000Z,98268
2018-05-08T12:12:00.000Z,98266
2018-05-08T12:17:00.000Z,98259
2018-05-08T12:22:00.000Z,98241
2018-05-08T12:27:00.000Z,98232
2018-05-08T12:32:00.000Z,98230
2018-05-08T12:37:00.000Z,98225
2018-05-08T12:42:00.000Z,98210
2018-05-08T12:47:00.000Z,98207
2018-05-08T12:52:00.000Z,98197
2018-05-08T12:57:00.000Z,98184
2018-05-08T13:02:00.000Z,98172
2018-05-08T13:07:00.000Z,98171
2018-05-08T13:12:00.000Z,98156
2018-05-08T13:17:00.000Z,98148
2018-05-08T13:22:00.000Z,98154
2018-05-08T13:27:00.000Z,98136
2018-05-08T13:32:00.000Z,98132
2018-05-08T13:37:00.000Z,98132
2018-05-08T13:42:00.000Z,98123
2018-05-08T13:47:00.000Z,98115
2018-05-08T13:52:00.000Z,98108
2018-05-08T13:57:00.000Z,98110
2018-05-08T14:02:00.000Z,98112
2018-05-08T14:07:00.000Z,98110
2018-05-08T14:12:00.000Z,98101
2018-05-08T14:18:00.000Z,98100
2018-05-08T14:23:00.000Z,98101
2018-05-08T14:28:00.000Z,98096
2018-05-08T14:33:00.000Z,98088
2018-05-08T14:38:00.000Z,98088
2018-05-08T14:43:00.000Z,98096
2018-05-08T14:48:00.000Z,98105
2018-05-08T14:53:00.000Z,98104
2018-05-08T14:58:00.000Z,98123
2018-05-08T15:03:00.000Z,98124
2018-05-08T15:08:00.000Z,98123
2018-05-08T15:13:00.000Z,98119
2018-05-08T15:18:00.000Z,98122
2018-05-08T15:23:00.000Z,98121
2018-05-08T15:28:00.000Z,98102
2018-05-08T15:33:00.000Z,98113
2018-05-08T15:38:00.000Z,98100
2018-05-08T15:43:00.000Z,98087
2018-05-08T15:48:00.000Z,98084
2018-05-08T15:53:00.000Z,98076
2018-05-08T15:58:00.000Z,98069
2018-05-08T16:03:00.000Z,98075
2018-05-08T16:08:00.000Z,98077
2018-05-08T16:13:00.000Z,98092
2018-05-08T16:18:00.000Z,98117
2018-05-08T16:23:00.000Z,98116
2018-05-08T16:28:00.000Z,98112
2018-05-08T16:33:00.000Z,98114
2018-05-08T16:38:00.000Z,98144
2018-05-08T16:43:00.000Z,98160
2018-05-08T16:48:00.000Z,98156
2018-05-08T16:53:00.000Z,98146
2018-05-08T16:58:00.000Z,98177
2018-05-08T17:03:00.000Z,98216
2018-05-08T17:08:00.000Z,98202
2018-05-08T17:13:00.000Z,98148
2018-05-08T17:18:00.000Z,98167
2018-05-08T17:23:00.000Z,98172
2018-05-08T17:28:00.000Z,98109
2018-05-08T17:33:00.000Z,98100
2018-05-08T17:38:00.000Z,98129
2018-05-08T17:43:00.000Z,98144
2018-05-08T17:48:00.000Z,98142
2018-05-08T17:53:00.000Z,98134
2018-05-08T17:58:00.000Z,98125
2018-05-08T18:03:00.000Z,98131
2018-05-08T18:08:00.000Z,98135
2018-05-08T18:13:00.000Z,98149
2018-05-08T18:18:00.000Z,98152
2018-05-08T18:23:00.000Z,98153
2018-05-08T18:28:00.000Z,98148
2018-05-08T18:33:00.000Z,98152
2018-05-08T18:38:00.000Z,98152
2018-05-08T18:43:00.000Z,98150
2018-05-08T18:48:00.000Z,98155
2018-05-08T18:53:00.000Z,98165
2018-05-08T18:58:00.000Z,98170
2018-05-08T19:03:00.000Z,98157
2018-05-08T19:08:00.000Z,98149
2018-05-08T19:13:00.000Z,98142
2018-05-08T19:18:00.000Z,98156
2018-05-08T19:23:00.000Z,98154
2018-05-08T19:28:00.000Z,98149
2018-05-08T19:33:00.000Z,98152
2018-05-08T19:38:00.000Z,98144
2018-05-08T19:43:00.000Z,98156
2018-05-08T19:48:00.000Z,98147
2018-05-08T19:54:00.000Z,98145
2018-05-08T19:59:00.000Z,98147
2018-05-08T20:04:00.000Z,98150
2018-05-08T20:09:00.000Z,98150
2018-05-08T20:14:00.000Z,98144
2018-05-08T20:19:00.000Z,98155
2018-05-08T20:24:00.000Z,98150
2018-05-08T20:29:00.000Z,98148
2018-05-08T20:34:00.000Z,98134
2018-05-08T20:39:00.000Z,98150
2018-05-08T20:44:00.000Z,98146
2018-05-08T20:49:00.000Z,98158
2018-05-08T20:54:00.000Z,98140
2018-05-08T20:59:00.000Z,98139
2018-05-08T21:04:00.000Z,98137
2018-05-08T21:09:00.000Z,98138
2018-05-08T21:14:00.000Z,98131
2018-05-08T21:19:00.000Z,98124
2018-05-08T21:24:00.000Z,98119
2018-05-08T21:29:00.000Z,98123
2018-05-08T21:34:00.000Z,98123
2018-05-08T21:39:00.000Z,98127
2018-05-08T21:44:00.000Z,98133
2018-05-08T21:49:00.000Z,98126
2018-05-08T21:54:00.000Z,98119
2018-05-08T21:59:00.000Z,98110
2018-05-08T22:04:00.000Z,98097
2018-05-08T22:09:00.000Z,98103
2018-05-08T22:14:00.000Z,98101
2018-05-08T22:19:00.000Z,98094
2018-05-08T22:24:00.000Z,98088
2018-05-08T22:29:00.000Z,98093
2018-05-08T22:34:00.000Z,98088
2018-05-08T22:39:00.000Z,98083
2018-05-08T22:44:00.000Z,98080
2018-05-08T22:49:00.000Z,98087
2018-05-08T22:54:00.000Z,98089
2018-05-08T22:59:00.000Z,98094
2018-05-08T23:04:00.000Z,98082
2018-05-08T23:09:00.000Z,98091
2018-05-08T23:14:00.000Z,98078
2018-05-08T23:19:00.000Z,98083
2018-05-08T23:24:00.000Z,98080
2018-05-08T23:29:00.000Z,98080
2018-05-08T23:34:00.000Z,98074
2018-05-08T23:39:00.000Z,98085
2018-05-08T23:44:00.000Z,98095
2018-05-08T23:49:00.000Z,98084
2018-05-08T23:54:00.000Z,98080
2018-05-08T23:59:00.000Z,98067
